sensor_id;sensor_type;location;lat;lon;timestamp;P1;durP1;ratioP1;P2;durP2;ratioP2
14592;SDS011;7383;52.354;9.756;2022-11-28T00:00:24;3.40;;;3.20;;
14592;SDS011;7383;52.354;9.756;2022-11-28T00:02:54;2.90;;;2.70;;
14592;SDS011;7383;52.354;9.756;2022-11-28T00:05:21;3.20;;;3.00;;
14592;SDS011;7383;52.354;9.756;2022-11-28T00:07:53;2.90;;;2.70;;
14592;SDS011;7383;52.354;9.756;2022-11-28T00:10:24;3.13;;;2.92;;
14592;SDS011;7383;52.354;9.756;2022-11-28T00:12:50;3.28;;;3.08;;
14592;SDS011;7383;52.354;9.756;2022-11-28T00:15:17;3.10;;;2.90;;
14592;SDS011;7383;52.354;9.756;2022-11-28T00:17:44;2.90;;;2.67;;
14592;SDS011;7383;52.354;9.756;2022-11-28T00:20:13;3.30;;;3.10;;
14592;SDS011;7383;52.354;9.756;2022-11-28T00:22:39;3.10;;;2.90;;
14592;SDS011;7383;52.354;9.756;2022-11-28T00:25:08;3.05;;;2.78;;
14592;SDS011;7383;52.354;9.756;2022-11-28T00:27:38;3.15;;;2.88;;
14592;SDS011;7383;52.354;9.756;2022-11-28T00:30:06;2.90;;;2.70;;
14592;SDS011;7383;52.354;9.756;2022-11-28T00:32:33;3.50;;;3.20;;
14592;SDS011;7383;52.354;9.756;2022-11-28T00:35:02;3.30;;;3.00;;
14592;SDS011;7383;52.354;9.756;2022-11-28T00:37:29;2.63;;;2.42;;
14592;SDS011;7383;52.354;9.756;2022-11-28T00:39:56;3.10;;;2.80;;
14592;SDS011;7383;52.354;9.756;2022-11-28T00:42:22;3.05;;;2.85;;
14592;SDS011;7383;52.354;9.756;2022-11-28T00:44:50;3.13;;;2.78;;
14592;SDS011;7383;52.354;9.756;2022-11-28T00:47:17;2.53;;;2.42;;
14592;SDS011;7383;52.354;9.756;2022-11-28T00:49:44;3.08;;;2.88;;
14592;SDS011;7383;52.354;9.756;2022-11-28T00:52:12;3.72;;;3.42;;
14592;SDS011;7383;52.354;9.756;2022-11-28T00:54:38;3.00;;;2.80;;
14592;SDS011;7383;52.354;9.756;2022-11-28T00:57:06;3.60;;;2.92;;
14592;SDS011;7383;52.354;9.756;2022-11-28T00:59:33;2.78;;;2.58;;
14592;SDS011;7383;52.354;9.756;2022-11-28T01:02:01;2.63;;;2.47;;
14592;SDS011;7383;52.354;9.756;2022-11-28T01:04:28;2.83;;;2.63;;
14592;SDS011;7383;52.354;9.756;2022-11-28T01:06:56;3.08;;;2.85;;
14592;SDS011;7383;52.354;9.756;2022-11-28T01:09:23;3.40;;;3.10;;
14592;SDS011;7383;52.354;9.756;2022-11-28T01:11:50;3.03;;;2.83;;
14592;SDS011;7383;52.354;9.756;2022-11-28T01:14:21;3.10;;;2.90;;
14592;SDS011;7383;52.354;9.756;2022-11-28T01:16:49;2.88;;;2.67;;
14592;SDS011;7383;52.354;9.756;2022-11-28T01:19:18;2.25;;;2.15;;
14592;SDS011;7383;52.354;9.756;2022-11-28T01:21:45;3.10;;;2.90;;
14592;SDS011;7383;52.354;9.756;2022-11-28T01:24:12;3.05;;;2.85;;
14592;SDS011;7383;52.354;9.756;2022-11-28T01:26:39;2.63;;;2.53;;
14592;SDS011;7383;52.354;9.756;2022-11-28T01:29:07;3.00;;;2.80;;
14592;SDS011;7383;52.354;9.756;2022-11-28T01:31:34;2.75;;;2.60;;
14592;SDS011;7383;52.354;9.756;2022-11-28T01:34:00;3.10;;;2.60;;
14592;SDS011;7383;52.354;9.756;2022-11-28T01:36:29;2.70;;;2.50;;
14592;SDS011;7383;52.354;9.756;2022-11-28T01:39:04;2.40;;;2.30;;
14592;SDS011;7383;52.354;9.756;2022-11-28T01:41:34;3.30;;;3.00;;
14592;SDS011;7383;52.354;9.756;2022-11-28T01:44:05;3.00;;;2.70;;
14592;SDS011;7383;52.354;9.756;2022-11-28T01:46:34;3.08;;;2.88;;
14592;SDS011;7383;52.354;9.756;2022-11-28T01:49:04;2.90;;;2.70;;
14592;SDS011;7383;52.354;9.756;2022-11-28T01:51:40;2.90;;;2.70;;
14592;SDS011;7383;52.354;9.756;2022-11-28T01:54:11;2.80;;;2.60;;
14592;SDS011;7383;52.354;9.756;2022-11-28T01:56:41;2.72;;;2.53;;
14592;SDS011;7383;52.354;9.756;2022-11-28T01:59:12;3.10;;;2.90;;
14592;SDS011;7383;52.354;9.756;2022-11-28T02:01:42;3.00;;;2.80;;
14592;SDS011;7383;52.354;9.756;2022-11-28T02:04:11;2.40;;;2.30;;
14592;SDS011;7383;52.354;9.756;2022-11-28T02:06:40;2.50;;;2.40;;
14592;SDS011;7383;52.354;9.756;2022-11-28T02:09:10;2.45;;;2.25;;
14592;SDS011;7383;52.354;9.756;2022-11-28T02:11:42;2.55;;;2.45;;
14592;SDS011;7383;52.354;9.756;2022-11-28T02:14:29;2.50;;;2.35;;
14592;SDS011;7383;52.354;9.756;2022-11-28T02:17:15;2.47;;;2.38;;
14592;SDS011;7383;52.354;9.756;2022-11-28T02:20:01;2.78;;;2.58;;
14592;SDS011;7383;52.354;9.756;2022-11-28T02:22:53;2.97;;;2.78;;
14592;SDS011;7383;52.354;9.756;2022-11-28T02:25:30;2.80;;;2.60;;
14592;SDS011;7383;52.354;9.756;2022-11-28T02:28:23;2.92;;;2.70;;
14592;SDS011;7383;52.354;9.756;2022-11-28T02:31:07;2.78;;;2.67;;
14592;SDS011;7383;52.354;9.756;2022-11-28T02:33:45;3.00;;;2.80;;
14592;SDS011;7383;52.354;9.756;2022-11-28T02:36:17;2.72;;;2.53;;
14592;SDS011;7383;52.354;9.756;2022-11-28T02:38:55;2.78;;;2.58;;
14592;SDS011;7383;52.354;9.756;2022-11-28T02:41:29;3.00;;;2.80;;
14592;SDS011;7383;52.354;9.756;2022-11-28T02:44:05;3.00;;;2.80;;
14592;SDS011;7383;52.354;9.756;2022-11-28T02:46:36;3.03;;;2.83;;
14592;SDS011;7383;52.354;9.756;2022-11-28T02:49:15;2.60;;;2.50;;
14592;SDS011;7383;52.354;9.756;2022-11-28T02:51:48;3.40;;;3.10;;
14592;SDS011;7383;52.354;9.756;2022-11-28T02:54:18;2.97;;;2.78;;
14592;SDS011;7383;52.354;9.756;2022-11-28T02:56:47;2.92;;;2.72;;
14592;SDS011;7383;52.354;9.756;2022-11-28T02:59:24;3.10;;;2.90;;
14592;SDS011;7383;52.354;9.756;2022-11-28T03:01:57;2.92;;;2.72;;
14592;SDS011;7383;52.354;9.756;2022-11-28T03:04:27;3.13;;;2.92;;
14592;SDS011;7383;52.354;9.756;2022-11-28T03:07:04;2.60;;;2.50;;
14592;SDS011;7383;52.354;9.756;2022-11-28T03:12:42;3.15;;;2.90;;
14592;SDS011;7383;52.354;9.756;2022-11-28T03:15:17;3.42;;;3.22;;
14592;SDS011;7383;52.354;9.756;2022-11-28T03:17:50;3.13;;;2.92;;
14592;SDS011;7383;52.354;9.756;2022-11-28T03:20:27;3.38;;;3.17;;
14592;SDS011;7383;52.354;9.756;2022-11-28T03:23:02;3.17;;;2.97;;
14592;SDS011;7383;52.354;9.756;2022-11-28T03:25:40;3.20;;;3.00;;
14592;SDS011;7383;52.354;9.756;2022-11-28T03:28:18;3.17;;;2.97;;
14592;SDS011;7383;52.354;9.756;2022-11-28T03:30:49;3.17;;;2.92;;
14592;SDS011;7383;52.354;9.756;2022-11-28T03:33:20;2.88;;;2.67;;
14592;SDS011;7383;52.354;9.756;2022-11-28T03:35:52;3.00;;;2.80;;
14592;SDS011;7383;52.354;9.756;2022-11-28T03:38:24;2.92;;;2.72;;
14592;SDS011;7383;52.354;9.756;2022-11-28T03:40:55;2.88;;;2.70;;
14592;SDS011;7383;52.354;9.756;2022-11-28T03:43:31;2.92;;;2.72;;
14592;SDS011;7383;52.354;9.756;2022-11-28T03:46:04;3.10;;;2.90;;
14592;SDS011;7383;52.354;9.756;2022-11-28T03:48:37;3.10;;;2.90;;
14592;SDS011;7383;52.354;9.756;2022-11-28T03:51:08;2.80;;;2.60;;
14592;SDS011;7383;52.354;9.756;2022-11-28T03:53:41;2.60;;;2.50;;
14592;SDS011;7383;52.354;9.756;2022-11-28T03:56:16;2.78;;;2.58;;
14592;SDS011;7383;52.354;9.756;2022-11-28T03:58:46;2.72;;;2.53;;
14592;SDS011;7383;52.354;9.756;2022-11-28T04:01:19;3.30;;;3.10;;
14592;SDS011;7383;52.354;9.756;2022-11-28T04:03:55;3.13;;;2.83;;
14592;SDS011;7383;52.354;9.756;2022-11-28T04:06:33;3.05;;;2.85;;
14592;SDS011;7383;52.354;9.756;2022-11-28T04:09:09;3.00;;;2.80;;
14592;SDS011;7383;52.354;9.756;2022-11-28T04:11:43;2.83;;;2.63;;
14592;SDS011;7383;52.354;9.756;2022-11-28T04:14:15;2.90;;;2.70;;
14592;SDS011;7383;52.354;9.756;2022-11-28T04:16:49;3.00;;;2.80;;
14592;SDS011;7383;52.354;9.756;2022-11-28T04:19:21;3.25;;;3.05;;
14592;SDS011;7383;52.354;9.756;2022-11-28T04:21:57;3.05;;;2.85;;
14592;SDS011;7383;52.354;9.756;2022-11-28T04:24:28;3.50;;;3.30;;
14592;SDS011;7383;52.354;9.756;2022-11-28T04:26:59;3.30;;;3.10;;
14592;SDS011;7383;52.354;9.756;2022-11-28T04:29:30;3.30;;;3.00;;
14592;SDS011;7383;52.354;9.756;2022-11-28T04:32:01;3.50;;;3.30;;
14592;SDS011;7383;52.354;9.756;2022-11-28T04:34:31;3.10;;;2.88;;
14592;SDS011;7383;52.354;9.756;2022-11-28T04:37:01;3.00;;;2.80;;
14592;SDS011;7383;52.354;9.756;2022-11-28T04:39:31;3.00;;;2.80;;
14592;SDS011;7383;52.354;9.756;2022-11-28T04:42:02;3.13;;;2.92;;
14592;SDS011;7383;52.354;9.756;2022-11-28T04:44:34;2.80;;;2.60;;
14592;SDS011;7383;52.354;9.756;2022-11-28T04:47:06;2.70;;;2.50;;
14592;SDS011;7383;52.354;9.756;2022-11-28T04:49:33;2.90;;;2.70;;
14592;SDS011;7383;52.354;9.756;2022-11-28T04:52:02;2.63;;;2.53;;
14592;SDS011;7383;52.354;9.756;2022-11-28T04:54:38;2.40;;;2.30;;
14592;SDS011;7383;52.354;9.756;2022-11-28T04:57:10;2.70;;;2.50;;
14592;SDS011;7383;52.354;9.756;2022-11-28T04:59:40;3.03;;;2.83;;
14592;SDS011;7383;52.354;9.756;2022-11-28T05:02:08;2.92;;;2.72;;
14592;SDS011;7383;52.354;9.756;2022-11-28T05:04:38;2.92;;;2.72;;
14592;SDS011;7383;52.354;9.756;2022-11-28T05:07:07;2.90;;;2.70;;
14592;SDS011;7383;52.354;9.756;2022-11-28T05:09:33;2.83;;;2.63;;
14592;SDS011;7383;52.354;9.756;2022-11-28T05:12:00;2.80;;;2.60;;
14592;SDS011;7383;52.354;9.756;2022-11-28T05:14:28;2.65;;;2.55;;
14592;SDS011;7383;52.354;9.756;2022-11-28T05:16:54;2.70;;;2.50;;
14592;SDS011;7383;52.354;9.756;2022-11-28T05:19:21;2.78;;;2.67;;
14592;SDS011;7383;52.354;9.756;2022-11-28T05:21:48;2.97;;;2.78;;
14592;SDS011;7383;52.354;9.756;2022-11-28T05:24:18;3.00;;;2.80;;
14592;SDS011;7383;52.354;9.756;2022-11-28T05:26:45;3.10;;;2.90;;
14592;SDS011;7383;52.354;9.756;2022-11-28T05:29:11;3.45;;;3.20;;
14592;SDS011;7383;52.354;9.756;2022-11-28T05:31:38;3.00;;;2.80;;
14592;SDS011;7383;52.354;9.756;2022-11-28T05:34:05;2.92;;;2.72;;
14592;SDS011;7383;52.354;9.756;2022-11-28T05:36:31;3.10;;;2.90;;
14592;SDS011;7383;52.354;9.756;2022-11-28T05:38:58;3.13;;;2.83;;
14592;SDS011;7383;52.354;9.756;2022-11-28T05:41:26;3.25;;;3.00;;
14592;SDS011;7383;52.354;9.756;2022-11-28T05:43:54;2.92;;;2.72;;
14592;SDS011;7383;52.354;9.756;2022-11-28T05:46:21;3.10;;;2.90;;
14592;SDS011;7383;52.354;9.756;2022-11-28T05:48:48;2.88;;;2.65;;
14592;SDS011;7383;52.354;9.756;2022-11-28T05:51:15;3.22;;;3.03;;
14592;SDS011;7383;52.354;9.756;2022-11-28T05:53:41;2.80;;;2.60;;
14592;SDS011;7383;52.354;9.756;2022-11-28T05:56:08;2.85;;;2.65;;
14592;SDS011;7383;52.354;9.756;2022-11-28T05:58:38;2.80;;;2.60;;
14592;SDS011;7383;52.354;9.756;2022-11-28T06:01:08;3.58;;;3.30;;
14592;SDS011;7383;52.354;9.756;2022-11-28T06:03:37;4.70;;;4.30;;
14592;SDS011;7383;52.354;9.756;2022-11-28T06:06:06;3.60;;;3.30;;
14592;SDS011;7383;52.354;9.756;2022-11-28T06:08:36;3.50;;;3.20;;
14592;SDS011;7383;52.354;9.756;2022-11-28T06:11:02;2.78;;;2.58;;
14592;SDS011;7383;52.354;9.756;2022-11-28T06:13:29;2.90;;;2.70;;
14592;SDS011;7383;52.354;9.756;2022-11-28T06:15:57;3.30;;;3.10;;
14592;SDS011;7383;52.354;9.756;2022-11-28T06:18:24;2.92;;;2.72;;
14592;SDS011;7383;52.354;9.756;2022-11-28T06:20:50;2.72;;;2.53;;
14592;SDS011;7383;52.354;9.756;2022-11-28T06:23:17;2.70;;;2.60;;
14592;SDS011;7383;52.354;9.756;2022-11-28T06:25:49;3.92;;;3.63;;
14592;SDS011;7383;52.354;9.756;2022-11-28T06:28:23;3.30;;;3.00;;
14592;SDS011;7383;52.354;9.756;2022-11-28T06:30:50;3.47;;;3.28;;
14592;SDS011;7383;52.354;9.756;2022-11-28T06:33:18;3.67;;;3.38;;
14592;SDS011;7383;52.354;9.756;2022-11-28T06:35:45;3.08;;;2.88;;
14592;SDS011;7383;52.354;9.756;2022-11-28T06:38:11;3.08;;;2.88;;
14592;SDS011;7383;52.354;9.756;2022-11-28T06:40:38;3.00;;;2.80;;
14592;SDS011;7383;52.354;9.756;2022-11-28T06:43:05;3.67;;;3.38;;
14592;SDS011;7383;52.354;9.756;2022-11-28T06:45:32;3.28;;;3.00;;
14592;SDS011;7383;52.354;9.756;2022-11-28T06:47:59;3.72;;;3.42;;
14592;SDS011;7383;52.354;9.756;2022-11-28T06:50:27;3.50;;;3.20;;
14592;SDS011;7383;52.354;9.756;2022-11-28T06:52:54;3.40;;;3.10;;
14592;SDS011;7383;52.354;9.756;2022-11-28T06:55:21;3.58;;;3.28;;
14592;SDS011;7383;52.354;9.756;2022-11-28T06:57:47;3.20;;;2.90;;
14592;SDS011;7383;52.354;9.756;2022-11-28T07:00:14;3.95;;;3.55;;
14592;SDS011;7383;52.354;9.756;2022-11-28T07:02:42;3.53;;;3.22;;
14592;SDS011;7383;52.354;9.756;2022-11-28T07:05:08;3.22;;;2.97;;
14592;SDS011;7383;52.354;9.756;2022-11-28T07:07:36;3.28;;;3.08;;
14592;SDS011;7383;52.354;9.756;2022-11-28T07:10:03;3.50;;;3.20;;
14592;SDS011;7383;52.354;9.756;2022-11-28T07:12:31;3.20;;;3.00;;
14592;SDS011;7383;52.354;9.756;2022-11-28T07:14:58;2.90;;;2.70;;
14592;SDS011;7383;52.354;9.756;2022-11-28T07:17:25;3.00;;;2.80;;
14592;SDS011;7383;52.354;9.756;2022-11-28T07:19:51;3.65;;;3.45;;
14592;SDS011;7383;52.354;9.756;2022-11-28T07:22:18;3.67;;;3.38;;
14592;SDS011;7383;52.354;9.756;2022-11-28T07:24:46;3.30;;;3.10;;
14592;SDS011;7383;52.354;9.756;2022-11-28T07:27:21;3.90;;;3.60;;
14592;SDS011;7383;52.354;9.756;2022-11-28T07:29:48;3.10;;;2.90;;
14592;SDS011;7383;52.354;9.756;2022-11-28T07:32:14;3.25;;;3.05;;
14592;SDS011;7383;52.354;9.756;2022-11-28T07:34:41;3.67;;;3.40;;
14592;SDS011;7383;52.354;9.756;2022-11-28T07:37:09;3.80;;;3.60;;
14592;SDS011;7383;52.354;9.756;2022-11-28T07:39:37;3.25;;;2.97;;
14592;SDS011;7383;52.354;9.756;2022-11-28T07:42:05;3.33;;;3.00;;
14592;SDS011;7383;52.354;9.756;2022-11-28T07:44:32;3.25;;;2.70;;
14592;SDS011;7383;52.354;9.756;2022-11-28T07:46:59;2.85;;;2.65;;
14592;SDS011;7383;52.354;9.756;2022-11-28T07:49:25;4.27;;;3.97;;
14592;SDS011;7383;52.354;9.756;2022-11-28T07:51:52;3.00;;;2.80;;
14592;SDS011;7383;52.354;9.756;2022-11-28T07:54:18;3.15;;;2.95;;
14592;SDS011;7383;52.354;9.756;2022-11-28T07:56:45;3.75;;;3.38;;
14592;SDS011;7383;52.354;9.756;2022-11-28T07:59:13;3.10;;;2.90;;
14592;SDS011;7383;52.354;9.756;2022-11-28T08:01:40;3.47;;;3.17;;
14592;SDS011;7383;52.354;9.756;2022-11-28T08:04:07;3.20;;;2.90;;
14592;SDS011;7383;52.354;9.756;2022-11-28T08:06:36;2.90;;;2.70;;
14592;SDS011;7383;52.354;9.756;2022-11-28T08:09:04;3.20;;;3.00;;
14592;SDS011;7383;52.354;9.756;2022-11-28T08:11:32;2.72;;;2.53;;
14592;SDS011;7383;52.354;9.756;2022-11-28T08:13:59;3.00;;;2.80;;
14592;SDS011;7383;52.354;9.756;2022-11-28T08:19:10;2.92;;;2.72;;
14592;SDS011;7383;52.354;9.756;2022-11-28T08:21:37;3.13;;;2.92;;
14592;SDS011;7383;52.354;9.756;2022-11-28T08:24:09;3.78;;;3.50;;
14592;SDS011;7383;52.354;9.756;2022-11-28T08:26:48;3.30;;;3.00;;
14592;SDS011;7383;52.354;9.756;2022-11-28T08:29:16;3.50;;;3.13;;
14592;SDS011;7383;52.354;9.756;2022-11-28T08:31:46;3.55;;;3.30;;
14592;SDS011;7383;52.354;9.756;2022-11-28T08:34:13;3.40;;;3.20;;
14592;SDS011;7383;52.354;9.756;2022-11-28T08:36:40;3.50;;;3.20;;
14592;SDS011;7383;52.354;9.756;2022-11-28T08:39:07;3.33;;;3.03;;
14592;SDS011;7383;52.354;9.756;2022-11-28T08:41:36;3.40;;;3.10;;
14592;SDS011;7383;52.354;9.756;2022-11-28T08:44:03;4.78;;;4.38;;
14592;SDS011;7383;52.354;9.756;2022-11-28T09:10:23;3.05;;;2.85;;
14592;SDS011;7383;52.354;9.756;2022-11-28T09:12:50;3.08;;;2.88;;
14592;SDS011;7383;52.354;9.756;2022-11-28T09:15:17;3.25;;;3.05;;
14592;SDS011;7383;52.354;9.756;2022-11-28T09:17:44;3.70;;;3.42;;
14592;SDS011;7383;52.354;9.756;2022-11-28T09:20:11;3.55;;;3.25;;
14592;SDS011;7383;52.354;9.756;2022-11-28T09:22:38;3.67;;;3.38;;
14592;SDS011;7383;52.354;9.756;2022-11-28T09:25:08;3.53;;;3.22;;
14592;SDS011;7383;52.354;9.756;2022-11-28T09:27:35;3.95;;;3.65;;
14592;SDS011;7383;52.354;9.756;2022-11-28T09:30:02;4.10;;;3.80;;
14592;SDS011;7383;52.354;9.756;2022-11-28T09:32:29;4.03;;;3.65;;
14592;SDS011;7383;52.354;9.756;2022-11-28T09:34:55;3.70;;;3.40;;
14592;SDS011;7383;52.354;9.756;2022-11-28T09:37:22;3.42;;;3.20;;
14592;SDS011;7383;52.354;9.756;2022-11-28T09:39:49;4.13;;;3.83;;
14592;SDS011;7383;52.354;9.756;2022-11-28T09:42:19;3.55;;;3.35;;
14592;SDS011;7383;52.354;9.756;2022-11-28T09:44:52;3.88;;;3.58;;
14592;SDS011;7383;52.354;9.756;2022-11-28T09:47:24;4.50;;;4.10;;
14592;SDS011;7383;52.354;9.756;2022-11-28T09:49:53;3.38;;;3.17;;
14592;SDS011;7383;52.354;9.756;2022-11-28T09:52:31;3.80;;;3.50;;
14592;SDS011;7383;52.354;9.756;2022-11-28T09:55:23;3.90;;;3.60;;
14592;SDS011;7383;52.354;9.756;2022-11-28T09:58:13;3.53;;;3.25;;
14592;SDS011;7383;52.354;9.756;2022-11-28T10:07:39;3.50;;;3.20;;
14592;SDS011;7383;52.354;9.756;2022-11-28T10:10:28;3.30;;;3.00;;
14592;SDS011;7383;52.354;9.756;2022-11-28T10:13:56;4.03;;;3.58;;
14592;SDS011;7383;52.354;9.756;2022-11-28T10:16:46;3.60;;;3.30;;
14592;SDS011;7383;52.354;9.756;2022-11-28T10:19:57;3.72;;;3.08;;
14592;SDS011;7383;52.354;9.756;2022-11-28T10:22:33;3.80;;;3.50;;
14592;SDS011;7383;52.354;9.756;2022-11-28T10:25:05;3.53;;;3.33;;
14592;SDS011;7383;52.354;9.756;2022-11-28T10:27:40;3.38;;;3.13;;
14592;SDS011;7383;52.354;9.756;2022-11-28T10:30:10;3.30;;;3.10;;
14592;SDS011;7383;52.354;9.756;2022-11-28T10:32:44;3.85;;;3.55;;
14592;SDS011;7383;52.354;9.756;2022-11-28T10:35:19;3.30;;;3.10;;
14592;SDS011;7383;52.354;9.756;2022-11-28T10:37:51;3.70;;;3.40;;
14592;SDS011;7383;52.354;9.756;2022-11-28T10:40:20;3.85;;;3.55;;
14592;SDS011;7383;52.354;9.756;2022-11-28T10:42:52;3.50;;;3.20;;
14592;SDS011;7383;52.354;9.756;2022-11-28T10:45:25;4.18;;;3.75;;
14592;SDS011;7383;52.354;9.756;2022-11-28T10:48:02;3.50;;;3.20;;
14592;SDS011;7383;52.354;9.756;2022-11-28T10:50:42;3.60;;;3.30;;
14592;SDS011;7383;52.354;9.756;2022-11-28T10:53:21;4.00;;;3.70;;
14592;SDS011;7383;52.354;9.756;2022-11-28T10:56:02;3.97;;;3.67;;
14592;SDS011;7383;52.354;9.756;2022-11-28T10:58:37;3.05;;;2.85;;
14592;SDS011;7383;52.354;9.756;2022-11-28T11:01:14;4.00;;;3.70;;
14592;SDS011;7383;52.354;9.756;2022-11-28T11:03:41;4.18;;;3.80;;
14592;SDS011;7383;52.354;9.756;2022-11-28T11:06:10;3.70;;;3.40;;
14592;SDS011;7383;52.354;9.756;2022-11-28T11:08:54;3.80;;;3.50;;
14592;SDS011;7383;52.354;9.756;2022-11-28T11:11:50;3.75;;;3.53;;
14592;SDS011;7383;52.354;9.756;2022-11-28T11:14:33;3.78;;;3.50;;
14592;SDS011;7383;52.354;9.756;2022-11-28T11:17:04;3.42;;;3.13;;
14592;SDS011;7383;52.354;9.756;2022-11-28T11:19:32;3.88;;;3.58;;
14592;SDS011;7383;52.354;9.756;2022-11-28T11:22:03;4.00;;;3.60;;
14592;SDS011;7383;52.354;9.756;2022-11-28T11:24:32;4.03;;;3.72;;
14592;SDS011;7383;52.354;9.756;2022-11-28T11:27:13;4.30;;;3.90;;
14592;SDS011;7383;52.354;9.756;2022-11-28T11:30:17;3.78;;;3.47;;
14592;SDS011;7383;52.354;9.756;2022-11-28T11:32:49;3.42;;;3.15;;
14592;SDS011;7383;52.354;9.756;2022-11-28T11:35:24;4.15;;;3.85;;
14592;SDS011;7383;52.354;9.756;2022-11-28T11:40:43;4.25;;;3.85;;
14592;SDS011;7383;52.354;9.756;2022-11-28T11:43:21;3.90;;;3.60;;
14592;SDS011;7383;52.354;9.756;2022-11-28T11:46:02;4.20;;;3.90;;
14592;SDS011;7383;52.354;9.756;2022-11-28T11:48:33;4.07;;;3.78;;
14592;SDS011;7383;52.354;9.756;2022-11-28T11:51:00;4.18;;;3.88;;
14592;SDS011;7383;52.354;9.756;2022-11-28T11:53:28;4.28;;;3.97;;
14592;SDS011;7383;52.354;9.756;2022-11-28T11:55:55;4.07;;;3.78;;
14592;SDS011;7383;52.354;9.756;2022-11-28T11:58:31;4.05;;;3.75;;
14592;SDS011;7383;52.354;9.756;2022-11-28T12:01:06;4.35;;;3.67;;
14592;SDS011;7383;52.354;9.756;2022-11-28T12:03:38;4.05;;;3.65;;
14592;SDS011;7383;52.354;9.756;2022-11-28T12:06:09;3.53;;;3.33;;
14592;SDS011;7383;52.354;9.756;2022-11-28T12:08:44;4.10;;;3.80;;
14592;SDS011;7383;52.354;9.756;2022-11-28T12:11:20;3.53;;;3.22;;
14592;SDS011;7383;52.354;9.756;2022-11-28T12:13:56;3.90;;;3.58;;
14592;SDS011;7383;52.354;9.756;2022-11-28T12:16:38;3.53;;;3.28;;
14592;SDS011;7383;52.354;9.756;2022-11-28T12:19:15;3.78;;;3.47;;
14592;SDS011;7383;52.354;9.756;2022-11-28T12:22:04;4.32;;;3.85;;
14592;SDS011;7383;52.354;9.756;2022-11-28T12:24:39;4.75;;;3.75;;
14592;SDS011;7383;52.354;9.756;2022-11-28T12:27:20;3.90;;;3.60;;
14592;SDS011;7383;52.354;9.756;2022-11-28T12:29:57;5.10;;;3.92;;
14592;SDS011;7383;52.354;9.756;2022-11-28T12:32:34;4.20;;;3.90;;
14592;SDS011;7383;52.354;9.756;2022-11-28T12:35:14;4.07;;;3.67;;
14592;SDS011;7383;52.354;9.756;2022-11-28T12:37:51;4.15;;;3.85;;
14592;SDS011;7383;52.354;9.756;2022-11-28T12:40:30;4.18;;;3.75;;
14592;SDS011;7383;52.354;9.756;2022-11-28T12:43:07;3.65;;;3.40;;
14592;SDS011;7383;52.354;9.756;2022-11-28T12:45:45;4.07;;;3.63;;
14592;SDS011;7383;52.354;9.756;2022-11-28T12:48:23;3.83;;;3.53;;
14592;SDS011;7383;52.354;9.756;2022-11-28T12:50:58;4.20;;;3.83;;
14592;SDS011;7383;52.354;9.756;2022-11-28T12:53:37;4.68;;;4.28;;
14592;SDS011;7383;52.354;9.756;2022-11-28T12:56:18;4.10;;;3.80;;
14592;SDS011;7383;52.354;9.756;2022-11-28T12:58:54;4.22;;;3.83;;
14592;SDS011;7383;52.354;9.756;2022-11-28T13:01:30;4.20;;;3.90;;
14592;SDS011;7383;52.354;9.756;2022-11-28T13:04:16;4.50;;;4.10;;
14592;SDS011;7383;52.354;9.756;2022-11-28T13:06:55;4.80;;;4.40;;
14592;SDS011;7383;52.354;9.756;2022-11-28T13:09:30;3.92;;;3.63;;
14592;SDS011;7383;52.354;9.756;2022-11-28T13:12:05;4.00;;;3.70;;
14592;SDS011;7383;52.354;9.756;2022-11-28T13:14:44;4.68;;;4.28;;
14592;SDS011;7383;52.354;9.756;2022-11-28T13:17:18;4.43;;;4.03;;
14592;SDS011;7383;52.354;9.756;2022-11-28T13:19:54;5.63;;;4.55;;
14592;SDS011;7383;52.354;9.756;2022-11-28T13:22:31;4.50;;;4.10;;
14592;SDS011;7383;52.354;9.756;2022-11-28T13:25:18;3.97;;;3.67;;
14592;SDS011;7383;52.354;9.756;2022-11-28T13:27:52;4.63;;;4.22;;
14592;SDS011;7383;52.354;9.756;2022-11-28T13:30:30;4.53;;;4.22;;
14592;SDS011;7383;52.354;9.756;2022-11-28T13:33:02;4.20;;;3.90;;
14592;SDS011;7383;52.354;9.756;2022-11-28T13:35:32;4.13;;;3.80;;
14592;SDS011;7383;52.354;9.756;2022-11-28T13:38:01;4.63;;;4.32;;
14592;SDS011;7383;52.354;9.756;2022-11-28T13:40:33;4.97;;;4.57;;
14592;SDS011;7383;52.354;9.756;2022-11-28T13:43:09;4.90;;;4.50;;
14592;SDS011;7383;52.354;9.756;2022-11-28T13:45:40;5.35;;;4.45;;
14592;SDS011;7383;52.354;9.756;2022-11-28T13:51:16;4.97;;;4.55;;
14592;SDS011;7383;52.354;9.756;2022-11-28T13:53:44;4.65;;;4.25;;
14592;SDS011;7383;52.354;9.756;2022-11-28T13:56:19;5.38;;;4.88;;
14592;SDS011;7383;52.354;9.756;2022-11-28T13:58:50;5.15;;;4.70;;
14592;SDS011;7383;52.354;9.756;2022-11-28T14:01:20;4.60;;;4.20;;
14592;SDS011;7383;52.354;9.756;2022-11-28T14:03:50;5.38;;;4.88;;
14592;SDS011;7383;52.354;9.756;2022-11-28T14:06:26;5.15;;;4.68;;
14592;SDS011;7383;52.354;9.756;2022-11-28T14:08:58;5.40;;;4.93;;
14592;SDS011;7383;52.354;9.756;2022-11-28T14:11:35;5.82;;;5.30;;
14592;SDS011;7383;52.354;9.756;2022-11-28T14:16:58;4.97;;;4.55;;
14592;SDS011;7383;52.354;9.756;2022-11-28T14:20:01;5.03;;;4.63;;
14592;SDS011;7383;52.354;9.756;2022-11-28T14:22:58;5.32;;;4.93;;
14592;SDS011;7383;52.354;9.756;2022-11-28T14:25:42;6.32;;;5.72;;
14592;SDS011;7383;52.354;9.756;2022-11-28T14:28:21;5.65;;;5.15;;
14592;SDS011;7383;52.354;9.756;2022-11-28T14:30:49;5.82;;;5.30;;
14592;SDS011;7383;52.354;9.756;2022-11-28T14:33:29;5.70;;;5.20;;
14592;SDS011;7383;52.354;9.756;2022-11-28T14:36:01;5.03;;;4.53;;
14592;SDS011;7383;52.354;9.756;2022-11-28T14:38:57;5.65;;;5.15;;
14592;SDS011;7383;52.354;9.756;2022-11-28T14:44:42;4.60;;;4.30;;
14592;SDS011;7383;52.354;9.756;2022-11-28T14:47:16;5.38;;;4.97;;
14592;SDS011;7383;52.354;9.756;2022-11-28T14:53:34;4.90;;;4.47;;
14592;SDS011;7383;52.354;9.756;2022-11-28T14:56:26;5.72;;;5.22;;
14592;SDS011;7383;52.354;9.756;2022-11-28T14:58:56;5.05;;;4.65;;
14592;SDS011;7383;52.354;9.756;2022-11-28T15:01:31;4.60;;;4.28;;
14592;SDS011;7383;52.354;9.756;2022-11-28T15:04:13;4.70;;;4.30;;
14592;SDS011;7383;52.354;9.756;2022-11-28T15:06:53;4.30;;;3.97;;
14592;SDS011;7383;52.354;9.756;2022-11-28T15:09:22;5.10;;;4.57;;
14592;SDS011;7383;52.354;9.756;2022-11-28T15:12:03;4.20;;;3.85;;
14592;SDS011;7383;52.354;9.756;2022-11-28T15:14:36;4.82;;;4.40;;
14592;SDS011;7383;52.354;9.756;2022-11-28T15:17:03;4.70;;;4.32;;
14592;SDS011;7383;52.354;9.756;2022-11-28T15:19:32;4.55;;;4.15;;
14592;SDS011;7383;52.354;9.756;2022-11-28T15:22:02;4.93;;;4.50;;
14592;SDS011;7383;52.354;9.756;2022-11-28T15:24:29;4.88;;;4.38;;
14592;SDS011;7383;52.354;9.756;2022-11-28T15:26:57;4.80;;;4.40;;
14592;SDS011;7383;52.354;9.756;2022-11-28T15:29:54;5.20;;;4.70;;
14592;SDS011;7383;52.354;9.756;2022-11-28T15:32:22;4.70;;;4.30;;
14592;SDS011;7383;52.354;9.756;2022-11-28T15:34:50;4.90;;;4.50;;
14592;SDS011;7383;52.354;9.756;2022-11-28T15:37:19;5.05;;;4.63;;
14592;SDS011;7383;52.354;9.756;2022-11-28T15:39:47;5.53;;;4.93;;
14592;SDS011;7383;52.354;9.756;2022-11-28T15:42:19;5.60;;;5.00;;
14592;SDS011;7383;52.354;9.756;2022-11-28T15:44:49;5.43;;;4.88;;
14592;SDS011;7383;52.354;9.756;2022-11-28T15:47:20;5.35;;;4.85;;
14592;SDS011;7383;52.354;9.756;2022-11-28T15:49:56;5.35;;;4.85;;
14592;SDS011;7383;52.354;9.756;2022-11-28T15:52:24;6.00;;;5.40;;
14592;SDS011;7383;52.354;9.756;2022-11-28T15:54:52;5.95;;;5.20;;
14592;SDS011;7383;52.354;9.756;2022-11-28T15:57:23;5.65;;;5.05;;
14592;SDS011;7383;52.354;9.756;2022-11-28T15:59:52;6.20;;;5.60;;
14592;SDS011;7383;52.354;9.756;2022-11-28T16:02:22;5.60;;;5.10;;
14592;SDS011;7383;52.354;9.756;2022-11-28T16:05:04;4.78;;;4.38;;
14592;SDS011;7383;52.354;9.756;2022-11-28T16:07:40;5.10;;;4.70;;
14592;SDS011;7383;52.354;9.756;2022-11-28T16:10:16;6.00;;;5.47;;
14592;SDS011;7383;52.354;9.756;2022-11-28T16:12:52;5.18;;;4.70;;
14592;SDS011;7383;52.354;9.756;2022-11-28T16:15:36;5.68;;;5.18;;
14592;SDS011;7383;52.354;9.756;2022-11-28T16:18:04;5.97;;;5.22;;
14592;SDS011;7383;52.354;9.756;2022-11-28T16:20:32;6.00;;;5.50;;
14592;SDS011;7383;52.354;9.756;2022-11-28T16:23:06;5.72;;;5.22;;